createdAt,value
2018-11-28T00:00:15.943Z,-0.15
2018-11-28T00:02:43.575Z,-0.06
2018-11-28T00:05:10.975Z,0.04
2018-11-28T00:07:38.644Z,0.13
2018-11-28T00:10:05.998Z,0.25
2018-11-28T00:12:34.350Z,0.36
2018-11-28T00:15:01.773Z,0.49
2018-11-28T00:17:29.098Z,0.59
2018-11-28T00:19:56.401Z,0.61
2018-11-28T00:22:24.075Z,0.66
2018-11-28T00:24:51.417Z,0.71
2018-11-28T00:27:18.777Z,0.78
2018-11-28T00:29:46.127Z,0.88
2018-11-28T00:32:14.612Z,0.98
2018-11-28T00:34:41.373Z,1.04
2018-11-28T00:37:10.499Z,1.10
2018-11-28T00:39:37.943Z,1.14
2018-11-28T00:42:05.571Z,1.19
2018-11-28T00:44:32.887Z,1.20
2018-11-28T00:47:00.233Z,1.20
2018-11-28T00:49:27.558Z,1.18
2018-11-28T00:51:55.195Z,1.13
2018-11-28T00:54:22.513Z,1.12
2018-11-28T00:56:49.843Z,1.14
2018-11-28T00:59:17.233Z,1.15
2018-11-28T01:01:45.944Z,1.11
2018-11-28T01:04:13.239Z,1.11
2018-11-28T01:06:40.570Z,1.10
2018-11-28T01:09:08.226Z,1.05
2018-11-28T01:11:35.572Z,1.02
2018-11-28T01:14:02.902Z,1.00
2018-11-28T01:16:30.240Z,0.98
2018-11-28T01:18:58.058Z,0.98
2018-11-28T01:21:25.387Z,0.98
2018-11-28T01:23:52.728Z,0.96
2018-11-28T01:26:20.039Z,1.05
2018-11-28T01:28:47.865Z,1.10
2018-11-28T01:31:15.647Z,1.09
2018-11-28T01:33:42.981Z,1.06
2018-11-28T01:36:10.303Z,0.98
2018-11-28T01:38:37.620Z,0.92
2018-11-28T01:41:04.931Z,0.84
2018-11-28T01:43:32.280Z,0.78
2018-11-28T01:46:00.915Z,0.80
2018-11-28T01:48:28.272Z,0.95
2018-11-28T01:50:55.644Z,1.04
2018-11-28T01:53:23.028Z,1.11
2018-11-28T01:55:50.704Z,1.14
2018-11-28T01:58:18.023Z,1.14
2018-11-28T02:00:45.328Z,1.13
2018-11-28T02:03:13.138Z,1.12
2018-11-28T02:05:40.438Z,1.19
2018-11-28T02:08:07.739Z,1.23
2018-11-28T02:10:35.095Z,1.23
2018-11-28T02:13:02.937Z,1.20
2018-11-28T02:15:30.227Z,1.14
2018-11-28T02:17:57.528Z,1.07
2018-11-28T02:20:25.594Z,1.07
2018-11-28T02:22:52.937Z,1.10
2018-11-28T02:25:20.246Z,1.12
2018-11-28T02:27:47.584Z,1.18
2018-11-28T02:30:15.337Z,1.17
2018-11-28T02:32:42.647Z,1.16
2018-11-28T02:35:09.933Z,1.14
2018-11-28T02:37:37.223Z,1.11
2018-11-28T02:40:04.972Z,1.11
2018-11-28T02:42:32.324Z,1.08
2018-11-28T02:44:59.644Z,1.08
2018-11-28T02:47:26.979Z,1.07
2018-11-28T02:49:54.791Z,1.08
2018-11-28T02:52:22.131Z,1.08
2018-11-28T02:54:49.450Z,1.05
2018-11-28T02:57:16.777Z,1.04
2018-11-28T02:59:44.564Z,1.03
2018-11-28T03:02:11.876Z,1.06
2018-11-28T03:04:39.192Z,1.08
2018-11-28T03:07:06.485Z,1.11
2018-11-28T03:09:33.847Z,1.10
2018-11-28T03:12:01.200Z,1.05
2018-11-28T03:14:28.534Z,1.01
2018-11-28T03:16:56.163Z,0.99
2018-11-28T03:19:23.479Z,1.00
2018-11-28T03:21:51.488Z,0.98
2018-11-28T03:24:18.879Z,0.94
2018-11-28T03:26:46.668Z,0.89
2018-11-28T03:29:14.009Z,0.85
2018-11-28T03:31:41.482Z,0.82
2018-11-28T03:34:08.744Z,0.82
2018-11-28T03:36:36.499Z,0.84
2018-11-28T03:39:04.019Z,0.84
2018-11-28T03:41:31.344Z,0.83
2018-11-28T03:43:58.701Z,0.83
2018-11-28T03:46:26.521Z,0.85
2018-11-28T03:48:53.872Z,0.85
2018-11-28T03:51:21.200Z,0.89
2018-11-28T03:53:48.493Z,0.96
2018-11-28T03:56:16.073Z,1.08
2018-11-28T03:58:43.416Z,1.22
2018-11-28T04:01:10.857Z,1.34
2018-11-28T04:03:38.250Z,1.45
2018-11-28T04:06:05.942Z,1.54
2018-11-28T04:08:33.257Z,1.61
2018-11-28T04:11:00.622Z,1.70
2018-11-28T04:13:27.960Z,1.76
2018-11-28T04:15:55.768Z,1.81
2018-11-28T04:18:23.152Z,1.88
2018-11-28T04:20:50.516Z,1.92
2018-11-28T04:23:17.838Z,1.96
2018-11-28T04:25:46.285Z,2.00
2018-11-28T04:28:13.642Z,2.06
2018-11-28T04:30:40.989Z,2.13
2018-11-28T04:33:08.795Z,2.18
2018-11-28T04:35:36.120Z,2.24
2018-11-28T04:38:03.427Z,2.24
2018-11-28T04:40:32.670Z,2.29
2018-11-28T04:43:00.413Z,2.33
2018-11-28T04:45:27.750Z,2.34
2018-11-28T04:47:55.101Z,2.36
2018-11-28T04:50:22.804Z,2.39
2018-11-28T04:52:50.130Z,2.44
2018-11-28T04:55:17.439Z,2.46
2018-11-28T04:57:45.158Z,2.48
2018-11-28T05:00:12.589Z,2.52
2018-11-28T05:02:39.962Z,2.58
2018-11-28T05:05:07.273Z,2.63
2018-11-28T05:07:35.009Z,2.66
2018-11-28T05:10:02.849Z,2.69
2018-11-28T05:12:30.196Z,2.71
2018-11-28T05:14:57.502Z,2.73
2018-11-28T05:17:25.223Z,2.78
2018-11-28T05:19:52.566Z,2.82
2018-11-28T05:22:19.974Z,2.85
2018-11-28T05:24:47.640Z,2.89
2018-11-28T05:27:14.989Z,2.96
2018-11-28T05:29:42.324Z,3.01
2018-11-28T05:32:09.978Z,3.07
2018-11-28T05:34:37.327Z,3.15
2018-11-28T05:37:04.724Z,3.18
2018-11-28T05:39:32.380Z,3.20
2018-11-28T05:41:59.695Z,3.22
2018-11-28T05:44:26.988Z,3.21
2018-11-28T05:46:54.781Z,3.19
2018-11-28T05:49:22.109Z,3.17
2018-11-28T05:51:49.539Z,3.15
2018-11-28T05:54:17.500Z,3.19
2018-11-28T05:56:44.809Z,3.21
2018-11-28T05:59:12.128Z,3.25
2018-11-28T06:01:39.876Z,3.28
2018-11-28T06:04:07.539Z,3.29
2018-11-28T06:06:34.875Z,3.32
2018-11-28T06:09:02.183Z,3.35
2018-11-28T06:11:29.468Z,3.36
2018-11-28T06:13:57.811Z,3.38
2018-11-28T06:16:25.115Z,3.40
2018-11-28T06:18:52.471Z,3.39
2018-11-28T06:21:20.274Z,3.39
2018-11-28T06:23:48.451Z,3.38
2018-11-28T06:26:15.784Z,3.38
2018-11-28T06:28:43.434Z,3.38
2018-11-28T06:31:10.738Z,3.40
2018-11-28T06:33:38.129Z,3.42
2018-11-28T06:36:05.836Z,3.42
2018-11-28T06:38:33.188Z,3.42
2018-11-28T06:41:00.551Z,3.41
2018-11-28T06:43:31.143Z,3.41
2018-11-28T06:45:58.470Z,3.42
2018-11-28T06:48:25.760Z,3.40
2018-11-28T06:50:53.453Z,3.40
2018-11-28T06:53:21.728Z,3.40
2018-11-28T06:55:49.093Z,3.39
2018-11-28T06:58:16.872Z,3.38
2018-11-28T07:00:44.236Z,3.36
2018-11-28T07:03:11.560Z,3.34
2018-11-28T07:05:42.153Z,3.32
2018-11-28T07:08:09.456Z,3.31
2018-11-28T07:10:37.515Z,3.27
2018-11-28T07:13:05.283Z,3.24
2018-11-28T07:15:32.657Z,3.28
2018-11-28T07:17:59.951Z,3.29
2018-11-28T07:20:27.663Z,3.29
2018-11-28T07:22:55.027Z,3.32
2018-11-28T07:25:22.320Z,3.36
2018-11-28T07:27:50.097Z,3.36
2018-11-28T07:30:17.468Z,3.40
2018-11-28T07:32:44.763Z,3.42
2018-11-28T07:35:13.050Z,3.43
2018-11-28T07:37:40.395Z,3.48
2018-11-28T07:40:07.716Z,3.53
2018-11-28T07:42:35.617Z,3.59
2018-11-28T07:45:02.971Z,3.63
2018-11-28T07:47:30.365Z,3.67
2018-11-28T07:49:58.615Z,3.69
2018-11-28T07:52:25.952Z,3.73
2018-11-28T07:54:54.040Z,3.77
2018-11-28T07:57:21.766Z,3.79
2018-11-28T07:59:49.141Z,3.81
2018-11-28T08:02:17.320Z,3.84
2018-11-28T08:04:46.196Z,3.86
2018-11-28T08:07:14.266Z,3.89
2018-11-28T08:09:41.663Z,3.91
2018-11-28T08:12:09.714Z,3.93
2018-11-28T08:14:36.902Z,3.96
2018-11-28T08:17:04.249Z,4.00
2018-11-28T08:19:31.936Z,4.03
2018-11-28T08:21:59.263Z,4.08
2018-11-28T08:24:26.624Z,4.12
2018-11-28T08:26:54.902Z,4.15
2018-11-28T08:29:22.324Z,4.21
2018-11-28T08:31:49.672Z,4.25
2018-11-28T08:34:17.298Z,4.29
2018-11-28T08:36:44.632Z,4.32
2018-11-28T08:39:11.993Z,4.37
2018-11-28T08:41:41.005Z,4.40
2018-11-28T08:44:08.359Z,4.42
2018-11-28T08:46:35.672Z,4.49
2018-11-28T08:49:03.424Z,4.53
2018-11-28T08:51:30.793Z,4.59
2018-11-28T08:53:58.313Z,4.63
2018-11-28T08:56:26.034Z,4.67
2018-11-28T08:58:53.341Z,4.72
2018-11-28T09:01:20.673Z,4.74
2018-11-28T09:03:48.403Z,4.78
2018-11-28T09:06:15.704Z,4.82
2018-11-28T09:08:43.006Z,4.86
2018-11-28T09:11:10.790Z,4.93
2018-11-28T09:13:38.451Z,4.98
2018-11-28T09:16:05.809Z,5.06
2018-11-28T09:18:33.700Z,5.14
2018-11-28T09:21:01.341Z,5.24
2018-11-28T09:23:28.632Z,5.34
2018-11-28T09:25:57.587Z,5.43
2018-11-28T09:28:26.436Z,5.52
2018-11-28T09:30:54.528Z,5.60
2018-11-28T09:33:22.436Z,5.68
2018-11-28T09:35:49.778Z,5.76
2018-11-28T09:38:17.435Z,5.84
2018-11-28T09:40:45.266Z,5.91
2018-11-28T09:43:13.275Z,5.99
2018-11-28T09:45:40.591Z,6.08
2018-11-28T09:48:10.299Z,6.19
2018-11-28T09:50:37.635Z,6.21
2018-11-28T09:53:05.067Z,6.23
2018-11-28T09:55:32.779Z,6.26
2018-11-28T09:58:00.171Z,6.29
2018-11-28T10:00:27.498Z,6.38
2018-11-28T10:02:55.411Z,6.44
2018-11-28T10:05:22.739Z,6.52
2018-11-28T10:07:50.082Z,6.56
2018-11-28T10:10:17.480Z,6.61
2018-11-28T10:12:46.111Z,6.67
2018-11-28T10:15:13.925Z,6.71
2018-11-28T10:17:41.697Z,6.69
2018-11-28T10:20:09.065Z,6.69
2018-11-28T10:22:37.024Z,6.68
2018-11-28T10:25:04.717Z,6.68
2018-11-28T10:27:32.950Z,6.71
2018-11-28T10:30:00.739Z,6.72
2018-11-28T10:32:28.076Z,6.76
2018-11-28T10:34:55.421Z,6.80
2018-11-28T10:37:24.668Z,6.88
2018-11-28T10:39:52.017Z,6.94
2018-11-28T10:42:19.337Z,7.04
2018-11-28T10:44:48.597Z,7.22
2018-11-28T10:47:18.713Z,7.43
2018-11-28T10:49:46.015Z,7.65
2018-11-28T10:52:13.785Z,7.76
2018-11-28T10:54:41.175Z,7.87
2018-11-28T10:57:08.607Z,8.01
2018-11-28T10:59:36.570Z,8.22
2018-11-28T11:02:09.159Z,8.33
2018-11-28T11:04:41.620Z,8.48
2018-11-28T11:07:15.427Z,8.48
2018-11-28T11:09:47.880Z,8.41
2018-11-28T11:12:20.601Z,8.31
2018-11-28T11:14:48.970Z,8.20
2018-11-28T11:17:16.296Z,8.13
2018-11-28T11:19:44.482Z,8.06
2018-11-28T11:22:11.859Z,8.02
2018-11-28T11:24:39.234Z,7.99
2018-11-28T11:27:07.644Z,7.98
2018-11-28T11:29:34.976Z,7.98
2018-11-28T11:32:02.283Z,7.98
2018-11-28T11:34:30.773Z,8.00
2018-11-28T11:36:58.229Z,8.04
2018-11-28T11:39:25.631Z,8.09
2018-11-28T11:41:53.404Z,8.15
2018-11-28T11:44:20.767Z,8.15
2018-11-28T11:46:48.139Z,8.16
2018-11-28T11:49:15.818Z,8.12
2018-11-28T11:51:43.199Z,8.06
2018-11-28T11:54:10.562Z,8.04
2018-11-28T11:56:38.294Z,8.06
2018-11-28T11:59:06.475Z,8.08
2018-11-28T12:01:33.889Z,8.08
2018-11-28T12:04:01.646Z,8.10
2018-11-28T12:06:28.970Z,8.14
2018-11-28T12:08:56.356Z,8.18
2018-11-28T12:11:25.229Z,8.24
2018-11-28T12:13:53.284Z,8.29
2018-11-28T12:16:21.674Z,8.36
2018-11-28T12:18:48.492Z,8.44
2018-11-28T12:21:15.811Z,8.49
2018-11-28T12:23:43.374Z,8.49
2018-11-28T12:26:11.107Z,8.51
2018-11-28T12:28:38.481Z,8.49
2018-11-28T12:31:05.805Z,8.47
2018-11-28T12:33:33.460Z,8.45
2018-11-28T12:36:00.812Z,8.43
2018-11-28T12:38:28.220Z,8.38
2018-11-28T12:40:55.583Z,8.36
2018-11-28T12:43:22.965Z,8.36
2018-11-28T12:45:50.673Z,8.33
2018-11-28T12:48:18.015Z,8.31
2018-11-28T12:50:45.335Z,8.29
2018-11-28T12:53:13.845Z,8.29
2018-11-28T12:55:41.497Z,8.30
2018-11-28T12:58:08.821Z,8.31
2018-11-28T13:00:37.064Z,8.31
2018-11-28T13:03:04.389Z,8.32
2018-11-28T13:05:32.661Z,8.33
2018-11-28T13:08:00.530Z,8.31
2018-11-28T13:10:27.881Z,8.30
2018-11-28T13:12:56.116Z,8.27
2018-11-28T13:15:26.026Z,8.24
2018-11-28T13:17:53.492Z,8.17
2018-11-28T13:20:22.486Z,8.09
2018-11-28T13:22:50.554Z,8.01
2018-11-28T13:25:17.898Z,7.95
2018-11-28T13:27:45.193Z,7.91
2018-11-28T13:30:13.725Z,7.87
2018-11-28T13:32:41.023Z,7.84
2018-11-28T13:35:09.725Z,7.84
2018-11-28T13:37:38.184Z,7.84
2018-11-28T13:40:06.484Z,7.81
2018-11-28T13:42:34.475Z,7.78
2018-11-28T13:45:02.224Z,7.77
2018-11-28T13:47:29.628Z,7.77
2018-11-28T13:49:56.993Z,7.77
2018-11-28T13:52:24.831Z,7.75
2018-11-28T13:55:37.964Z,7.74
2018-11-28T13:57:19.816Z,7.70
2018-11-28T13:59:47.656Z,7.68
2018-11-28T14:02:15.011Z,7.65
2018-11-28T14:04:42.364Z,7.61
2018-11-28T14:07:10.192Z,7.56
2018-11-28T14:09:37.590Z,7.51
2018-11-28T14:12:04.924Z,7.45
2018-11-28T14:14:33.524Z,7.40
2018-11-28T14:17:00.863Z,7.34
2018-11-28T14:19:28.200Z,7.31
2018-11-28T14:21:55.899Z,7.27
2018-11-28T14:24:23.257Z,7.25
2018-11-28T14:26:50.599Z,7.23
2018-11-28T14:29:18.424Z,7.21
2018-11-28T14:31:46.404Z,7.21
2018-11-28T14:34:17.152Z,7.18
2018-11-28T14:36:45.583Z,7.17
2018-11-28T14:39:13.678Z,7.16
2018-11-28T14:41:40.983Z,7.14
2018-11-28T14:44:09.287Z,7.13
2018-11-28T14:46:37.385Z,7.12
2018-11-28T14:49:04.732Z,7.11
2018-11-28T14:51:32.495Z,7.10
2018-11-28T14:53:59.867Z,7.09
2018-11-28T14:56:27.324Z,7.09
2018-11-28T14:58:55.905Z,7.07
2018-11-28T15:01:24.253Z,7.05
2018-11-28T15:03:51.669Z,7.03
2018-11-28T15:06:19.466Z,7.02
2018-11-28T15:08:47.520Z,7.01
2018-11-28T15:11:14.942Z,6.98
2018-11-28T15:13:42.696Z,6.96
2018-11-28T15:16:10.026Z,6.94
2018-11-28T15:21:12.003Z,6.89
2018-11-28T15:23:39.961Z,6.89
2018-11-28T15:26:07.346Z,6.89
2018-11-28T15:28:35.141Z,6.89
2018-11-28T15:31:03.100Z,6.90
2018-11-28T15:33:31.260Z,6.90
2018-11-28T15:35:59.066Z,6.90
2018-11-28T15:38:27.781Z,6.89
2018-11-28T15:40:55.208Z,6.90
2018-11-28T15:43:23.035Z,6.90
2018-11-28T15:45:50.351Z,6.90
2018-11-28T15:48:17.696Z,6.90
2018-11-28T15:50:45.416Z,6.90
2018-11-28T15:53:12.777Z,6.90
2018-11-28T15:55:40.116Z,6.89
2018-11-28T15:58:07.750Z,6.89
2018-11-28T16:00:35.091Z,6.87
2018-11-28T16:03:02.478Z,6.87
2018-11-28T16:05:30.213Z,6.86
2018-11-28T16:07:57.736Z,6.83
2018-11-28T16:10:31.083Z,6.83
2018-11-28T16:12:59.828Z,6.83
2018-11-28T16:15:29.170Z,6.83
2018-11-28T16:17:56.516Z,6.86
2018-11-28T16:20:24.143Z,6.87
2018-11-28T16:22:51.461Z,6.88
2018-11-28T16:25:19.644Z,6.90
2018-11-28T16:27:47.955Z,6.92
2018-11-28T16:30:15.338Z,6.93
2018-11-28T16:32:42.711Z,6.93
2018-11-28T16:35:10.736Z,6.95
2018-11-28T16:37:38.761Z,6.95
2018-11-28T16:40:06.076Z,6.97
2018-11-28T16:42:34.570Z,6.97
2018-11-28T16:45:01.894Z,6.97
2018-11-28T16:47:29.917Z,6.95
2018-11-28T16:50:02.256Z,6.92
2018-11-28T16:52:29.609Z,6.89
2018-11-28T16:54:59.448Z,6.88
2018-11-28T16:57:30.074Z,6.86
2018-11-28T16:59:57.465Z,6.86
2018-11-28T17:02:26.284Z,6.86
2018-11-28T17:04:53.939Z,6.86
2018-11-28T17:07:21.259Z,6.86
2018-11-28T17:09:48.581Z,6.87
2018-11-28T17:12:15.946Z,6.85
2018-11-28T17:14:43.243Z,6.85
2018-11-28T17:17:11.064Z,6.85
2018-11-28T17:19:39.780Z,6.84
2018-11-28T17:22:07.085Z,6.83
2018-11-28T17:24:34.840Z,6.80
2018-11-28T17:27:02.454Z,6.72
2018-11-28T17:29:29.760Z,6.58
2018-11-28T17:31:57.410Z,6.44
2018-11-28T17:34:24.833Z,6.33
2018-11-28T17:36:53.395Z,6.25
2018-11-28T17:39:21.029Z,6.18
2018-11-28T17:41:48.363Z,6.13
2018-11-28T17:44:16.411Z,6.06
2018-11-28T17:46:44.210Z,5.99
2018-11-28T17:49:11.692Z,5.89
2018-11-28T17:51:40.803Z,5.79
2018-11-28T17:54:08.439Z,5.70
2018-11-28T17:56:36.447Z,5.65
2018-11-28T17:59:03.731Z,5.62
2018-11-28T18:01:32.310Z,5.60
2018-11-28T18:03:59.734Z,5.57
2018-11-28T18:06:27.786Z,5.56
2018-11-28T18:08:55.590Z,5.57
2018-11-28T18:11:22.968Z,5.57
2018-11-28T18:13:50.389Z,5.57
2018-11-28T18:16:18.279Z,5.56
2018-11-28T18:18:45.602Z,5.57
2018-11-28T18:21:13.853Z,5.58
2018-11-28T18:23:41.670Z,5.59
2018-11-28T18:26:10.182Z,5.60
2018-11-28T18:28:37.573Z,5.60
2018-11-28T18:31:05.240Z,5.60
2018-11-28T18:33:32.695Z,5.61
2018-11-28T18:35:59.987Z,5.63
2018-11-28T18:38:29.241Z,5.65
2018-11-28T18:40:56.559Z,5.66
2018-11-28T18:43:23.889Z,5.68
2018-11-28T18:45:52.184Z,5.72
2018-11-28T18:48:19.598Z,5.74
2018-11-28T18:50:47.052Z,5.77
2018-11-28T18:53:14.737Z,5.79
2018-11-28T18:55:42.771Z,5.82
2018-11-28T18:58:11.096Z,5.84
2018-11-28T19:00:39.619Z,5.87
2018-11-28T19:03:06.964Z,5.89
2018-11-28T19:05:34.359Z,5.90
2018-11-28T19:08:02.189Z,5.90
2018-11-28T19:10:30.152Z,5.92
2018-11-28T19:12:58.741Z,5.95
2018-11-28T19:15:26.628Z,5.98
2018-11-28T19:17:54.900Z,6.02
2018-11-28T19:20:22.688Z,6.04
2018-11-28T19:22:50.416Z,6.09
2018-11-28T19:25:17.786Z,6.11
2018-11-28T19:27:45.208Z,6.15
2018-11-28T19:30:13.015Z,6.17
2018-11-28T19:32:40.733Z,6.19
2018-11-28T19:35:08.979Z,6.21
2018-11-28T19:37:36.778Z,6.22
2018-11-28T19:40:05.051Z,6.23
2018-11-28T19:42:33.403Z,6.23
2018-11-28T19:45:01.236Z,6.21
2018-11-28T19:47:28.597Z,6.20
2018-11-28T19:49:56.303Z,6.20
2018-11-28T19:52:24.979Z,6.21
2018-11-28T19:54:52.312Z,6.22
2018-11-28T19:57:19.699Z,6.23
2018-11-28T19:59:47.399Z,6.25
2018-11-28T20:02:15.436Z,6.27
2018-11-28T20:04:43.656Z,6.30
2018-11-28T20:07:11.401Z,6.32
2018-11-28T20:09:38.795Z,6.34
2018-11-28T20:12:06.124Z,6.38
2018-11-28T20:14:33.799Z,6.40
2018-11-28T20:17:02.262Z,6.42
2018-11-28T20:19:28.627Z,6.45
2018-11-28T20:21:56.327Z,6.49
2018-11-28T20:24:24.462Z,6.52
2018-11-28T20:26:51.872Z,6.54
2018-11-28T20:29:19.532Z,6.57
2018-11-28T20:31:46.834Z,6.59
2018-11-28T20:34:15.388Z,6.62
2018-11-28T20:36:43.107Z,6.67
2018-11-28T20:39:10.430Z,6.69
2018-11-28T20:41:37.887Z,6.74
2018-11-28T20:44:05.806Z,6.76
2018-11-28T20:46:34.681Z,6.79
2018-11-28T20:49:02.071Z,6.83
2018-11-28T20:51:29.794Z,6.85
2018-11-28T20:53:58.139Z,6.86
2018-11-28T20:56:25.781Z,6.86
2018-11-28T20:58:53.556Z,6.88
2018-11-28T21:01:20.939Z,6.87
2018-11-28T21:03:48.335Z,6.87
2018-11-28T21:06:18.545Z,6.88
2018-11-28T21:08:48.576Z,6.88
2018-11-28T21:11:17.759Z,6.87
2018-11-28T21:13:46.420Z,6.86
2018-11-28T21:16:14.625Z,6.83
2018-11-28T21:18:44.107Z,6.83
2018-11-28T21:21:14.912Z,6.83
2018-11-28T21:23:43.736Z,6.84
2018-11-28T21:26:12.307Z,6.86
2018-11-28T21:28:39.968Z,6.90
2018-11-28T21:31:07.307Z,6.91
2018-11-28T21:33:34.676Z,6.93
2018-11-28T21:36:02.367Z,6.95
2018-11-28T21:38:29.728Z,6.97
2018-11-28T21:40:57.152Z,6.96
2018-11-28T21:43:25.776Z,7.00
2018-11-28T21:45:56.351Z,7.03
2018-11-28T21:48:23.740Z,7.07
2018-11-28T21:50:51.414Z,7.09
2018-11-28T21:53:18.774Z,7.14
2018-11-28T21:55:46.131Z,7.16
2018-11-28T21:58:13.751Z,7.18
2018-11-28T22:00:41.060Z,7.20
2018-11-28T22:03:08.441Z,7.21
2018-11-28T22:05:36.122Z,7.23
2018-11-28T22:08:03.473Z,7.25
2018-11-28T22:10:31.575Z,7.27
2018-11-28T22:12:58.902Z,7.29
2018-11-28T22:15:26.214Z,7.31
2018-11-28T22:17:54.736Z,7.31
2018-11-28T22:20:22.017Z,7.31
2018-11-28T22:22:49.396Z,7.32
2018-11-28T22:25:17.152Z,7.31
2018-11-28T22:27:44.496Z,7.35
2018-11-28T22:30:11.839Z,7.36
2018-11-28T22:32:39.578Z,7.38
2018-11-28T22:35:06.976Z,7.39
2018-11-28T22:37:34.332Z,7.39
2018-11-28T22:40:05.045Z,7.41
2018-11-28T22:42:32.400Z,7.41
2018-11-28T22:44:59.716Z,7.42
2018-11-28T22:47:27.428Z,7.41
2018-11-28T22:49:54.775Z,7.40
2018-11-28T22:52:22.088Z,7.41
2018-11-28T22:54:49.389Z,7.41
2018-11-28T22:57:17.076Z,7.41
2018-11-28T22:59:44.412Z,7.41
2018-11-28T23:02:11.744Z,7.40
2018-11-28T23:04:39.373Z,7.41
2018-11-28T23:07:06.753Z,7.40
2018-11-28T23:09:34.078Z,7.39
2018-11-28T23:12:01.851Z,7.38
2018-11-28T23:14:29.264Z,7.39
2018-11-28T23:16:56.674Z,7.38
2018-11-28T23:19:24.171Z,7.39
2018-11-28T23:21:51.788Z,7.39
2018-11-28T23:24:19.152Z,7.40
2018-11-28T23:26:46.443Z,7.44
2018-11-28T23:29:14.908Z,7.48
2018-11-28T23:31:42.272Z,7.49
2018-11-28T23:34:09.588Z,7.51
2018-11-28T23:36:36.915Z,7.54
2018-11-28T23:39:06.860Z,7.57
2018-11-28T23:41:34.220Z,7.62
2018-11-28T23:44:01.567Z,7.65
2018-11-28T23:46:29.244Z,7.66
2018-11-28T23:48:56.537Z,7.67
2018-11-28T23:51:23.848Z,7.69
2018-11-28T23:53:51.330Z,7.70
2018-11-28T23:56:19.083Z,7.73
2018-11-28T23:58:46.381Z,7.75
